Time;durP1;ratioP1;P1;durP2;ratioP2;P2;SDS_P1;SDS_P2;PMS_P1;PMS_P2;Temp;Humidity;BMP_temperature;BMP_pressure;BME280_temperature;BME280_humidity;BME280_pressure;Samples;Min_cycle;Max_cycle;Signal;HPM_P1;HPM_P2
2021/07/16 00:00:37;;;;;;;;;;;;;;;-142.75;65.88;77192.38;5051804;28;20361;-80
2021/07/16 00:03:03;;;;;;;;;;;;;;;-142.75;66.37;77202.22;5069833;28;19967;-81
2021/07/16 00:05:28;;;;;;;;;;;;;;;-142.75;66.48;77200.25;5070384;28;21932;-79
2021/07/16 00:07:53;;;;;;;;;;;;;;;-142.75;66.88;77200.25;5051672;28;19956;-81
2021/07/16 00:10:20;;;;;;;;;;;;;;;-142.75;66.88;77204.19;5070045;28;20286;-78
2021/07/16 00:12:46;;;;;;;;;;;;;;;-142.75;66.93;77200.25;5068439;28;19917;-81
2021/07/16 00:15:12;;;;;;;;;;;;;;;-142.75;66.71;77204.19;5068755;28;19916;-79
2021/07/16 00:17:38;;;;;;;;;;;;;;;-142.75;66.67;77210.09;5052406;28;19939;-79
2021/07/16 00:20:04;;;;;;;;;;;;;;;-142.75;66.25;77214.03;5054283;28;20369;-81
2021/07/16 00:22:29;;;;;;;;;;;;;;;-142.75;66.12;77212.06;5073757;28;20525;-79
2021/07/16 00:24:55;;;;;;;;;;;;;;;-142.75;65.67;77212.06;5073504;28;20331;-80
2021/07/16 00:27:20;;;;;;;;;;;;;;;-142.75;65.28;77219.94;5055665;28;19923;-80
2021/07/16 00:29:45;;;;;;;;;;;;;;;-142.75;65.09;77223.88;5073285;28;19924;-79
2021/07/16 00:32:10;;;;;;;;;;;;;;;-142.75;65.09;77227.81;5071900;28;19916;-80
2021/07/16 00:34:35;;;;;;;;;;;;;;;-142.75;64.97;77231.75;5073757;28;19916;-80
2021/07/16 00:37:01;;;;;;;;;;;;;;;-142.75;65.00;77235.69;5073459;28;19924;-80
2021/07/16 00:39:26;;;;;;;;;;;;;;;-142.75;64.83;77231.75;5073526;28;19924;-81
2021/07/16 00:41:52;;;;;;;;;;;;;;;-142.75;64.95;77235.69;5072842;28;19920;-80
2021/07/16 00:44:18;;;;;;;;;;;;;;;-142.75;64.83;77233.72;5073389;28;19931;-78
2021/07/16 00:46:43;;;;;;;;;;;;;;;-142.75;64.72;77235.69;5073462;28;20293;-79
2021/07/16 00:49:08;;;;;;;;;;;;;;;-142.75;64.68;77235.69;5055500;28;19916;-80
2021/07/16 00:51:33;;;;;;;;;;;;;;;-142.75;64.60;77237.66;5072469;28;19970;-79
2021/07/16 00:53:58;;;;;;;;;;;;;;;-142.75;64.79;77247.50;5055028;28;20389;-80
2021/07/16 00:56:23;;;;;;;;;;;;;;;-142.75;64.88;77247.50;5054970;28;21969;-80
2021/07/16 00:58:49;;;;;;;;;;;;;;;-142.75;64.44;77251.44;5072526;28;20401;-80
2021/07/16 01:01:14;;;;;;;;;;;;;;;-142.75;64.66;77245.53;5054509;28;19920;-78
2021/07/16 01:03:41;;;;;;;;;;;;;;;-142.75;64.84;77247.50;5072639;28;19917;-80
2021/07/16 01:06:06;;;;;;;;;;;;;;;-142.75;64.59;77245.53;5072828;28;19916;-79
2021/07/16 01:08:31;;;;;;;;;;;;;;;-142.75;64.41;77253.41;5071750;28;19923;-81
2021/07/16 01:10:57;;;;;;;;;;;;;;;-142.75;64.61;77267.19;5072685;28;19936;-79
2021/07/16 01:13:22;;;;;;;;;;;;;;;-142.75;64.54;77271.13;5052120;28;19920;-78
2021/07/16 01:15:47;;;;;;;;;;;;;;;-142.75;63.75;77273.09;5054470;28;19928;-80
2021/07/16 01:18:13;;;;;;;;;;;;;;;-142.75;64.00;77271.13;5055285;28;19981;-78
2021/07/16 01:20:38;;;;;;;;;;;;;;;-142.75;63.50;77273.09;5053978;28;19920;-79
2021/07/16 01:23:15;;;;;;;;;;;;;;;-142.75;63.26;77275.06;5054336;28;20510;-79
2021/07/16 01:25:41;;;;;;;;;;;;;;;-142.75;62.90;77279.00;5054454;28;19924;-79
2021/07/16 01:28:06;;;;;;;;;;;;;;;-142.75;63.39;77286.88;5072510;28;20374;-78
2021/07/16 01:30:32;;;;;;;;;;;;;;;-142.75;63.14;77286.88;5071134;28;19956;-79
2021/07/16 01:33:00;;;;;;;;;;;;;;;-142.75;63.19;77286.88;5054157;28;19966;-80
2021/07/16 01:35:25;;;;;;;;;;;;;;;-142.75;63.26;77284.91;5070809;28;19955;-79
2021/07/16 01:37:51;;;;;;;;;;;;;;;-142.75;63.27;77290.81;5054257;28;19959;-78
2021/07/16 01:40:18;;;;;;;;;;;;;;;-142.75;63.21;77290.81;5070342;28;19924;-81
2021/07/16 01:42:45;;;;;;;;;;;;;;;-142.75;63.14;77290.81;5053921;28;20382;-80
2021/07/16 01:45:12;;;;;;;;;;;;;;;-142.75;63.24;77290.81;5051273;28;19963;-80
2021/07/16 01:47:38;;;;;;;;;;;;;;;-142.75;63.45;77298.69;5072439;28;19999;-79
2021/07/16 01:50:04;;;;;;;;;;;;;;;-142.75;63.18;77302.63;5053924;28;20371;-79
2021/07/16 01:52:30;;;;;;;;;;;;;;;-142.75;63.39;77300.66;5053706;28;20045;-78
2021/07/16 01:54:55;;;;;;;;;;;;;;;-142.75;63.30;77306.56;5071896;28;20014;-78
2021/07/16 01:57:20;;;;;;;;;;;;;;;-142.75;62.82;77308.53;5071554;28;19916;-80
2021/07/16 01:59:45;;;;;;;;;;;;;;;-142.75;62.50;77306.56;5072017;28;19916;-79
2021/07/16 02:02:10;;;;;;;;;;;;;;;-142.75;62.67;77306.56;5071487;28;19928;-80
2021/07/16 02:04:36;;;;;;;;;;;;;;;-142.75;62.96;77312.47;5053696;28;21356;-79
2021/07/16 02:07:01;;;;;;;;;;;;;;;-142.75;63.15;77314.44;5070610;28;20453;-81
2021/07/16 02:09:27;;;;;;;;;;;;;;;-142.75;62.95;77316.41;5051256;28;19923;-80
2021/07/16 02:11:56;;;;;;;;;;;;;;;-142.75;63.26;77314.44;5053497;28;19920;-80
2021/07/16 02:14:21;;;;;;;;;;;;;;;-142.75;63.52;77318.38;5071364;28;19967;-80
2021/07/16 02:16:47;;;;;;;;;;;;;;;-142.75;63.73;77324.28;5053430;28;19951;-79
2021/07/16 02:19:12;;;;;;;;;;;;;;;-142.75;63.29;77322.31;5071843;28;20394;-79
2021/07/16 02:21:37;;;;;;;;;;;;;;;-142.75;63.08;77328.22;5071594;28;19920;-79
2021/07/16 02:24:02;;;;;;;;;;;;;;;-142.75;62.57;77330.19;5071529;28;19920;-79
2021/07/16 02:26:28;;;;;;;;;;;;;;;-142.75;62.57;77336.09;5053676;28;20545;-79
2021/07/16 02:28:53;;;;;;;;;;;;;;;-142.75;62.29;77342.00;5071413;28;20297;-80
2021/07/16 02:31:18;;;;;;;;;;;;;;;-142.75;62.38;77338.06;5049769;28;20390;-78
2021/07/16 02:33:43;;;;;;;;;;;;;;;-142.75;62.59;77349.88;5053054;28;19948;-79
2021/07/16 02:36:09;;;;;;;;;;;;;;;-142.75;62.05;77353.81;5053580;28;19963;-78
2021/07/16 02:38:34;;;;;;;;;;;;;;;-142.75;61.71;77357.75;5053713;28;19962;-80
2021/07/16 02:40:59;;;;;;;;;;;;;;;-142.75;61.81;77355.78;5070819;28;19927;-79
2021/07/16 02:43:25;;;;;;;;;;;;;;;-142.75;61.56;77353.81;5053073;28;19924;-79
2021/07/16 02:45:50;;;;;;;;;;;;;;;-142.75;61.34;77357.75;5070508;28;20407;-79
2021/07/16 02:48:16;;;;;;;;;;;;;;;-142.75;61.05;77361.69;5053101;28;19920;-78
2021/07/16 02:50:42;;;;;;;;;;;;;;;-142.75;61.21;77361.69;5070224;28;19924;-79
2021/07/16 02:53:08;;;;;;;;;;;;;;;-142.75;60.83;77357.75;5070817;28;20007;-80
2021/07/16 02:55:34;;;;;;;;;;;;;;;-142.75;61.01;77353.81;5052560;28;20331;-77
2021/07/16 02:57:59;;;;;;;;;;;;;;;-142.75;61.26;77359.72;5070774;28;19966;-79
2021/07/16 03:00:26;;;;;;;;;;;;;;;-142.75;61.67;77361.69;5070241;28;20374;-80
2021/07/16 03:02:51;;;;;;;;;;;;;;;-142.75;61.20;77349.88;5069940;28;19917;-79
2021/07/16 03:05:18;;;;;;;;;;;;;;;-142.75;61.37;77365.63;5070252;28;19916;-79
2021/07/16 03:07:44;;;;;;;;;;;;;;;-142.75;61.09;77371.53;5050192;28;19930;-78
2021/07/16 03:10:10;;;;;;;;;;;;;;;-142.75;61.15;77369.56;5052118;28;20300;-80
2021/07/16 03:12:39;;;;;;;;;;;;;;;-142.75;61.18;77367.59;5070939;28;19924;-79
2021/07/16 03:15:09;;;;;;;;;;;;;;;-142.75;61.47;77367.59;5068469;28;19948;-79
2021/07/16 03:17:37;;;;;;;;;;;;;;;-142.75;61.40;77373.50;5070743;28;19920;-79
2021/07/16 03:20:04;;;;;;;;;;;;;;;-142.75;61.32;77375.47;5070530;28;19952;-80
2021/07/16 03:22:29;;;;;;;;;;;;;;;-142.75;61.81;77377.44;5053035;28;19956;-80
2021/07/16 03:24:54;;;;;;;;;;;;;;;-142.75;61.75;77375.47;5070268;28;19966;-80
2021/07/16 03:27:20;;;;;;;;;;;;;;;-142.75;61.28;77367.59;5070413;28;20328;-80
2021/07/16 03:29:45;;;;;;;;;;;;;;;-142.75;61.56;77371.53;5070459;28;19917;-82
2021/07/16 03:32:10;;;;;;;;;;;;;;;-142.75;61.57;77377.44;5052606;28;20054;-80
2021/07/16 03:34:35;;;;;;;;;;;;;;;-142.75;61.66;77381.38;5052903;28;19943;-81
2021/07/16 03:37:00;;;;;;;;;;;;;;;-142.75;62.12;77385.31;5052697;28;19916;-81
2021/07/16 03:39:26;;;;;;;;;;;;;;;-142.75;62.44;77385.31;5052603;28;20302;-81
2021/07/16 03:41:51;;;;;;;;;;;;;;;-142.75;62.33;77389.25;5069950;28;19963;-81
2021/07/16 03:44:16;;;;;;;;;;;;;;;-142.75;61.99;77387.28;5052184;28;20001;-83
2021/07/16 03:46:41;;;;;;;;;;;;;;;-142.75;62.10;77389.25;5067515;28;19920;-80
2021/07/16 03:49:06;;;;;;;;;;;;;;;-142.75;62.36;77393.19;5070651;28;20275;-81
2021/07/16 03:51:32;;;;;;;;;;;;;;;-142.75;62.27;77399.09;5069957;28;19916;-81
2021/07/16 03:53:58;;;;;;;;;;;;;;;-142.75;62.22;77389.25;5069971;28;19924;-80
2021/07/16 03:56:23;;;;;;;;;;;;;;;-142.75;62.55;77399.09;5056361;28;19969;-81
2021/07/16 03:58:48;;;;;;;;;;;;;;;-142.75;62.50;77393.19;5073943;28;19924;-79
2021/07/16 04:01:14;;;;;;;;;;;;;;;-142.75;62.65;77397.13;5055938;28;19971;-80
2021/07/16 04:03:39;;;;;;;;;;;;;;;-142.75;62.89;77406.97;5074128;28;19917;-80
2021/07/16 04:06:05;;;;;;;;;;;;;;;-142.75;63.00;77401.06;5056248;28;19963;-79
2021/07/16 04:08:34;;;;;;;;;;;;;;;-142.75;62.98;77401.06;5074024;28;19962;-80
2021/07/16 04:10:59;;;;;;;;;;;;;;;-142.75;63.22;77405.00;5053493;28;19917;-79
2021/07/16 04:13:24;;;;;;;;;;;;;;;-142.75;63.08;77403.03;5073733;28;19962;-80
2021/07/16 04:15:50;;;;;;;;;;;;;;;-142.75;62.67;77405.00;5073876;28;20345;-79
2021/07/16 04:18:15;;;;;;;;;;;;;;;-142.75;62.64;77397.13;5074399;28;19916;-79
2021/07/16 04:20:40;;;;;;;;;;;;;;;-142.75;62.91;77397.13;5055357;28;20305;-78
2021/07/16 04:23:06;;;;;;;;;;;;;;;-142.75;62.81;77397.13;5073572;28;19923;-80
2021/07/16 04:25:31;;;;;;;;;;;;;;;-142.75;63.20;77395.16;5080301;22;19987;-75
2021/07/16 04:28:01;;;;;;;;;;;;;;;-142.75;63.28;77399.09;5033188;28;19924;-75
2021/07/16 04:30:27;;;;;;;;;;;;;;;-142.75;62.99;77395.16;5051998;28;19917;-75
2021/07/16 04:32:57;;;;;;;;;;;;;;;-142.75;62.98;77395.16;5069847;28;19952;-75
2021/07/16 04:35:22;;;;;;;;;;;;;;;-142.75;63.20;77393.19;5054086;28;20019;-76
2021/07/16 04:37:48;;;;;;;;;;;;;;;-142.75;63.24;77395.16;5053683;28;20004;-75
2021/07/16 04:40:18;;;;;;;;;;;;;;;-142.75;63.14;77399.09;5072002;28;19923;-75
2021/07/16 04:42:43;;;;;;;;;;;;;;;-142.75;62.55;77391.22;5072068;28;19928;-76
2021/07/16 04:45:09;;;;;;;;;;;;;;;-142.75;62.96;77387.28;5071789;28;20447;-75
2021/07/16 04:47:35;;;;;;;;;;;;;;;-142.75;62.69;77391.22;5072264;28;19912;-76
2021/07/16 04:50:00;;;;;;;;;;;;;;;-142.75;62.96;77391.22;5072273;28;20050;-76
2021/07/16 04:52:25;;;;;;;;;;;;;;;-142.75;63.17;77393.19;5071857;28;19917;-76
2021/07/16 04:54:50;;;;;;;;;;;;;;;-142.75;62.95;77387.28;5071841;28;19929;-75
2021/07/16 04:57:15;;;;;;;;;;;;;;;-142.75;62.89;77381.38;5053715;28;19943;-75
2021/07/16 04:59:41;;;;;;;;;;;;;;;-142.75;63.14;77389.25;5071809;28;19947;-75
2021/07/16 05:02:06;;;;;;;;;;;;;;;-142.75;63.08;77389.25;5071057;28;19920;-76
2021/07/16 05:04:32;;;;;;;;;;;;;;;-142.75;62.56;77395.16;5070439;28;19922;-76
2021/07/16 05:06:57;;;;;;;;;;;;;;;-142.75;63.02;77401.06;5049997;28;19959;-75
2021/07/16 05:09:24;;;;;;;;;;;;;;;-142.75;63.36;77393.19;5050502;28;22391;-75
2021/07/16 05:11:49;;;;;;;;;;;;;;;-142.75;63.28;77391.22;5050936;28;19923;-76
2021/07/16 05:14:15;;;;;;;;;;;;;;;-142.75;63.36;77387.28;5049525;28;19932;-75
2021/07/16 05:16:40;;;;;;;;;;;;;;;-142.75;63.55;77387.28;5049796;28;20275;-76
2021/07/16 05:19:05;;;;;;;;;;;;;;;-142.75;63.14;77383.34;5033772;28;19917;-75
2021/07/16 05:21:32;;;;;;;;;;;;;;;-142.75;62.97;77381.38;5032556;28;19921;-75
2021/07/16 05:23:58;;;;;;;;;;;;;;;-142.75;62.86;77377.44;5050638;28;19920;-75
2021/07/16 05:26:23;;;;;;;;;;;;;;;-142.75;63.26;77377.44;5050913;28;19962;-75
2021/07/16 05:28:49;;;;;;;;;;;;;;;-142.75;63.14;77373.50;5052587;28;19927;-75
2021/07/16 05:31:15;;;;;;;;;;;;;;;-142.75;63.15;77371.53;5070068;28;20331;-75
2021/07/16 05:33:40;;;;;;;;;;;;;;;-142.75;63.30;77367.59;5051822;28;19916;-76
2021/07/16 05:36:06;;;;;;;;;;;;;;;-142.75;63.02;77357.75;5069760;28;19951;-76
2021/07/16 05:38:31;;;;;;;;;;;;;;;-142.75;62.91;77353.81;5069746;28;20362;-75
2021/07/16 05:40:56;;;;;;;;;;;;;;;-142.75;63.22;77357.75;5051624;28;19921;-76
2021/07/16 05:43:22;;;;;;;;;;;;;;;-142.75;62.91;77349.88;5069589;28;19925;-76
2021/07/16 05:45:47;;;;;;;;;;;;;;;-142.75;62.61;77338.06;5065914;28;19971;-75
2021/07/16 05:48:12;;;;;;;;;;;;;;;-142.75;62.22;77318.38;5050253;28;19917;-76
2021/07/16 05:50:38;;;;;;;;;;;;;;;-142.75;62.30;77298.69;5049532;28;19939;-75
2021/07/16 05:53:04;;;;;;;;;;;;;;;-142.75;61.79;77298.69;5048420;28;19917;-76
2021/07/16 05:55:29;;;;;;;;;;;;;;;-142.75;61.65;77294.75;5048290;28;20010;-76
2021/07/16 05:57:55;;;;;;;;;;;;;;;-142.75;61.74;77302.63;5049576;28;20438;-76
2021/07/16 06:00:21;;;;;;;;;;;;;;;-142.75;62.23;77294.75;5049453;28;20386;-75
2021/07/16 06:02:46;;;;;;;;;;;;;;;-142.75;62.17;77296.72;5055307;28;20015;-76
2021/07/16 06:05:11;;;;;;;;;;;;;;;-142.75;62.42;77298.69;5051315;28;19998;-76
2021/07/16 06:07:36;;;;;;;;;;;;;;;-142.75;61.84;77294.75;5069257;28;19924;-76
2021/07/16 06:10:02;;;;;;;;;;;;;;;-142.75;62.01;77290.81;5068963;28;19947;-75
2021/07/16 06:12:28;;;;;;;;;;;;;;;-142.75;62.46;77290.81;5049723;28;19930;-75
2021/07/16 06:14:56;;;;;;;;;;;;;;;-142.75;62.53;77294.75;5049115;28;20429;-75
2021/07/16 06:17:25;;;;;;;;;;;;;;;-142.75;62.95;77286.88;5038625;28;19917;-76
2021/07/16 06:19:51;;;;;;;;;;;;;;;-142.75;61.96;77277.03;5066920;28;20374;-75
2021/07/16 06:22:16;;;;;;;;;;;;;;;-142.75;62.03;77279.00;5049117;28;19967;-75
2021/07/16 06:24:41;;;;;;;;;;;;;;;-142.75;62.09;77273.09;5054258;28;19946;-76
2021/07/16 06:27:07;;;;;;;;;;;;;;;-142.75;62.15;77269.16;5051001;28;19923;-75
2021/07/16 06:29:32;;;;;;;;;;;;;;;-142.75;62.38;77259.31;5065013;28;19921;-75
2021/07/16 06:31:58;;;;;;;;;;;;;;;-142.75;61.16;77243.56;5049016;28;19917;-76
2021/07/16 06:34:23;;;;;;;;;;;;;;;-142.75;60.16;77231.75;5031160;28;20374;-75
2021/07/16 06:36:48;;;;;;;;;;;;;;;-142.75;60.63;77223.88;5048807;28;19921;-74
2021/07/16 06:39:13;;;;;;;;;;;;;;;-142.75;59.33;77223.88;5047633;28;19916;-75
2021/07/16 06:41:38;;;;;;;;;;;;;;;-142.75;60.16;77231.75;5046229;28;19940;-74
2021/07/16 06:44:04;;;;;;;;;;;;;;;-142.75;59.97;77231.75;5047716;28;19986;-74
2021/07/16 06:46:29;;;;;;;;;;;;;;;-142.75;60.74;77227.81;5035227;28;20378;-74
2021/07/16 06:48:54;;;;;;;;;;;;;;;-142.75;60.97;77225.84;5068204;28;20349;-74
2021/07/16 06:51:20;;;;;;;;;;;;;;;-142.75;60.24;77225.84;5049125;28;20012;-74
2021/07/16 06:53:46;;;;;;;;;;;;;;;-142.75;60.63;77225.84;5048235;28;19920;-74
2021/07/16 06:56:11;;;;;;;;;;;;;;;-142.75;60.41;77225.84;5046242;28;21032;-74
2021/07/16 06:58:36;;;;;;;;;;;;;;;-142.75;60.43;77229.78;5047702;28;19925;-75
2021/07/16 07:01:01;;;;;;;;;;;;;;;-142.75;60.00;77233.72;5045808;28;19928;-74
2021/07/16 07:03:27;;;;;;;;;;;;;;;-142.75;59.73;77247.50;5029513;28;19931;-74
2021/07/16 07:05:56;;;;;;;;;;;;;;;-142.75;60.51;77247.50;5048143;28;19931;-74
2021/07/16 07:08:22;;;;;;;;;;;;;;;-142.75;61.13;77245.53;5047771;28;19962;-75
2021/07/16 07:10:47;;;;;;;;;;;;;;;-142.75;61.46;77245.53;5057910;28;19916;-74
2021/07/16 07:13:12;;;;;;;;;;;;;;;-142.75;61.03;77243.56;5047210;28;19924;-74
2021/07/16 07:15:37;;;;;;;;;;;;;;;-142.75;61.27;77243.56;5063146;28;19917;-74
2021/07/16 07:18:03;;;;;;;;;;;;;;;-142.75;61.18;77251.44;5067296;28;19923;-74
2021/07/16 07:20:29;;;;;;;;;;;;;;;-142.75;60.85;77253.41;5054030;28;19966;-74
2021/07/16 07:22:54;;;;;;;;;;;;;;;-142.75;60.87;77257.34;5045812;28;19964;-74
2021/07/16 07:25:19;;;;;;;;;;;;;;;-142.75;60.39;77251.44;5054351;28;19916;-74
2021/07/16 07:27:44;;;;;;;;;;;;;;;-142.75;59.44;77251.44;5048130;28;19921;-75
2021/07/16 07:30:10;;;;;;;;;;;;;;;-142.75;59.38;77269.16;5046529;28;19932;-75
2021/07/16 07:32:35;;;;;;;;;;;;;;;-142.75;59.07;77271.13;5045789;28;20019;-75
2021/07/16 07:35:00;;;;;;;;;;;;;;;-142.75;58.85;77282.94;5045619;28;19923;-74
2021/07/16 07:37:25;;;;;;;;;;;;;;;-142.75;59.32;77284.91;5046920;28;19921;-74
2021/07/16 07:39:51;;;;;;;;;;;;;;;-142.75;60.48;77282.94;5046355;28;20378;-74
2021/07/16 07:42:17;;;;;;;;;;;;;;;-142.75;60.16;77282.94;5057360;28;19920;-74
2021/07/16 07:44:43;;;;;;;;;;;;;;;-142.75;60.82;77275.06;5066444;28;19974;-75
2021/07/16 07:47:08;;;;;;;;;;;;;;;-142.75;59.07;77263.25;5049059;28;19916;-75
2021/07/16 07:49:33;;;;;;;;;;;;;;;-142.75;58.85;77243.56;5049318;28;19942;-75
2021/07/16 07:51:59;;;;;;;;;;;;;;;-142.75;58.74;77216.00;5048505;28;19925;-74
2021/07/16 07:54:25;;;;;;;;;;;;;;;-142.75;58.19;77216.00;5066517;28;19916;-73
2021/07/16 07:56:50;;;;;;;;;;;;;;;-142.75;58.57;77214.03;5048962;28;19920;-74
2021/07/16 07:59:15;;;;;;;;;;;;;;;-142.75;58.35;77217.97;5066664;28;19916;-75
2021/07/16 08:01:40;;;;;;;;;;;;;;;-142.75;58.51;77219.94;5046350;28;19927;-74
2021/07/16 08:04:06;;;;;;;;;;;;;;;-142.75;58.91;77219.94;5046915;28;19917;-74
2021/07/16 08:06:31;;;;;;;;;;;;;;;-142.75;58.75;77221.91;5049676;28;20385;-76
2021/07/16 08:08:57;;;;;;;;;;;;;;;-142.75;58.64;77221.91;5047367;28;19917;-75
2021/07/16 08:11:22;;;;;;;;;;;;;;;-142.75;58.63;77198.28;5046874;28;19917;-76
2021/07/16 08:13:48;;;;;;;;;;;;;;;-142.75;58.89;77176.63;5057885;28;19924;-76
2021/07/16 08:16:13;;;;;;;;;;;;;;;-142.75;57.54;77164.81;5037261;28;19917;-75
2021/07/16 08:18:38;;;;;;;;;;;;;;;-142.75;57.46;77149.06;5053458;28;20274;-76
2021/07/16 08:21:04;;;;;;;;;;;;;;;-142.75;58.10;77141.19;5050498;28;19917;-75
2021/07/16 08:23:29;;;;;;;;;;;;;;;-142.75;57.63;77084.09;5055235;28;19923;-76
2021/07/16 08:25:54;;;;;;;;;;;;;;;-142.75;56.01;76989.59;5036162;28;20370;-75
2021/07/16 08:28:20;;;;;;;;;;;;;;;-142.75;54.13;76936.44;5049661;28;19913;-77
2021/07/16 08:30:45;;;;;;;;;;;;;;;-142.75;54.46;76938.41;5047260;28;19916;-75
2021/07/16 08:33:10;;;;;;;;;;;;;;;-142.75;53.49;76954.16;5048033;28;19917;-77
2021/07/16 08:35:35;;;;;;;;;;;;;;;-142.75;52.94;76967.94;5046118;28;19966;-74
2021/07/16 08:38:00;;;;;;;;;;;;;;;-142.75;54.30;76977.78;5050957;28;19919;-76
2021/07/16 08:40:26;;;;;;;;;;;;;;;-142.75;54.61;76940.38;5070133;28;20421;-77
2021/07/16 08:42:51;;;;;;;;;;;;;;;-142.75;53.55;76810.44;5072600;28;20381;-74
2021/07/16 08:45:16;;;;;;;;;;;;;;;-142.75;51.72;76719.91;5072710;28;20309;-77
2021/07/16 08:47:42;;;;;;;;;;;;;;;-142.75;51.21;76735.66;5072995;28;19924;-76
2021/07/16 08:50:08;;;;;;;;;;;;;;;-142.75;50.44;76759.28;5055446;28;19965;-76
2021/07/16 08:52:34;;;;;;;;;;;;;;;-142.75;50.08;76804.53;5072269;28;20274;-75
2021/07/16 08:55:01;;;;;;;;;;;;;;;-142.75;51.87;76869.50;5072048;28;20034;-76
2021/07/16 08:57:28;;;;;;;;;;;;;;;-142.75;51.81;76883.28;5054367;28;19916;-77
2021/07/16 08:59:53;;;;;;;;;;;;;;;-142.75;52.00;76914.78;5072069;28;19921;-76
2021/07/16 09:02:19;;;;;;;;;;;;;;;-142.75;51.56;76924.63;5054179;28;19943;-76
2021/07/16 09:04:44;;;;;;;;;;;;;;;-142.75;51.32;76902.97;5072210;28;20065;-76
2021/07/16 09:07:09;;;;;;;;;;;;;;;-142.75;51.68;76904.94;5072256;28;19920;-77
2021/07/16 09:09:39;;;;;;;;;;;;;;;-142.75;52.66;76875.41;5072032;28;20027;-76
2021/07/16 09:12:11;;;;;;;;;;;;;;;-142.75;51.32;76822.25;5070566;28;19924;-76
2021/07/16 09:14:37;;;;;;;;;;;;;;;-142.75;51.67;76660.84;5072461;28;20431;-77
2021/07/16 09:17:02;;;;;;;;;;;;;;;-142.75;47.73;76509.28;5072778;28;19916;-77
2021/07/16 09:19:35;;;;;;;;;;;;;;;-142.75;47.03;76542.72;5044735;28;19917;-77
2021/07/16 09:22:06;;;;;;;;;;;;;;;-142.75;46.87;76605.72;5052211;28;19974;-77
2021/07/16 09:24:32;;;;;;;;;;;;;;;-142.75;47.96;76633.28;5037964;28;19931;-76
2021/07/16 09:26:58;;;;;;;;;;;;;;;-142.75;48.91;76688.41;5057278;28;20003;-77
2021/07/16 09:29:30;;;;;;;;;;;;;;;-142.75;50.75;76645.09;5056819;28;20008;-77
2021/07/16 09:32:22;;;;;;;;;;;;;;;-142.75;48.34;76578.16;5059830;28;20337;-78
2021/07/16 09:34:51;;;;;;;;;;;;;;;-142.75;47.46;76424.63;5051242;28;19916;-77
2021/07/16 09:37:16;;;;;;;;;;;;;;;-142.75;45.19;76290.78;5052295;28;19917;-76
2021/07/16 09:39:45;;;;;;;;;;;;;;;-142.75;41.66;76314.41;5053913;28;20011;-77
2021/07/16 09:42:11;;;;;;;;;;;;;;;-142.75;42.53;76219.91;5051715;28;19936;-77
2021/07/16 09:44:38;;;;;;;;;;;;;;;-142.75;41.94;76080.16;5062357;28;19917;-77
2021/07/16 09:47:14;;;;;;;;;;;;;;;-142.75;38.66;76025.06;5074859;28;19985;-77
2021/07/16 09:49:40;;;;;;;;;;;;;;;-142.75;40.01;76164.81;5051840;28;19916;-76
2021/07/16 09:52:10;;;;;;;;;;;;;;;-142.75;40.47;76174.66;5066482;28;19917;-77
2021/07/16 09:54:36;;;;;;;;;;;;;;;-142.75;41.15;76294.72;5055787;28;19924;-76
2021/07/16 09:57:01;;;;;;;;;;;;;;;-142.75;42.27;76401.00;5062447;28;19916;-77
2021/07/16 09:59:27;;;;;;;;;;;;;;;-142.75;42.78;76412.81;5072997;28;20433;-77
2021/07/16 10:01:53;;;;;;;;;;;;;;;-142.75;43.24;76334.09;5055546;28;19921;-78
2021/07/16 10:04:21;;;;;;;;;;;;;;;-142.75;43.05;76326.22;5073507;28;19966;-78
2021/07/16 10:06:48;;;;;;;;;;;;;;;-142.75;41.04;76214.00;5065455;28;19917;-77
2021/07/16 10:09:13;;;;;;;;;;;;;;;-142.75;40.76;76263.22;5053128;28;19927;-78
2021/07/16 10:11:38;;;;;;;;;;;;;;;-142.75;42.24;76395.09;5055533;28;19924;-76
2021/07/16 10:14:04;;;;;;;;;;;;;;;-142.75;44.07;76320.31;5051623;28;19917;-77
2021/07/16 10:16:30;;;;;;;;;;;;;;;-142.75;41.29;76160.88;5053285;28;19980;-75
2021/07/16 10:18:55;;;;;;;;;;;;;;;-142.75;38.91;76019.16;5053801;28;20302;-78
2021/07/16 10:21:22;;;;;;;;;;;;;;;-142.75;38.04;75946.34;5055415;28;19964;-77
2021/07/16 10:23:49;;;;;;;;;;;;;;;-142.75;38.96;75922.72;5054568;28;19948;-77
2021/07/16 10:26:14;;;;;;;;;;;;;;;-142.75;37.34;76003.41;5058635;22;20436;-77
2021/07/16 10:28:41;;;;;;;;;;;;;;;-142.75;39.90;76164.81;5041909;28;19932;-78
2021/07/16 10:31:25;;;;;;;;;;;;;;;-142.75;40.87;76253.38;5035834;28;19971;-78
2021/07/16 10:33:50;;;;;;;;;;;;;;;-142.75;40.61;76166.78;5036746;28;19924;-78
2021/07/16 10:36:35;;;;;;;;;;;;;;;-142.75;41.01;76243.53;5031031;28;19917;-78
2021/07/16 10:39:01;;;;;;;;;;;;;;;-142.75;41.85;76034.91;5014648;28;19925;-78
2021/07/16 10:41:35;;;;;;;;;;;;;;;-142.75;40.43;75922.72;5016565;28;20298;-79
2021/07/16 10:44:01;;;;;;;;;;;;;;;-142.75;39.41;76046.72;5031367;28;19925;-78
2021/07/16 10:46:27;;;;;;;;;;;;;;;-142.75;39.30;76135.28;5029906;28;21750;-79
2021/07/16 10:48:52;;;;;;;;;;;;;;;-142.75;40.37;76286.84;5031664;28;19917;-77
2021/07/16 10:51:21;;;;;;;;;;;;;;;-142.75;42.58;76304.56;5032402;28;19924;-77
2021/07/16 10:53:47;;;;;;;;;;;;;;;-142.75;41.57;76162.84;5032208;28;20362;-78
2021/07/16 10:56:13;;;;;;;;;;;;;;;-142.75;39.45;76034.91;5031505;28;19956;-78
2021/07/16 10:58:39;;;;;;;;;;;;;;;-142.75;40.24;76141.19;5030539;28;19948;-77
2021/07/16 11:01:05;;;;;;;;;;;;;;;-142.75;39.87;76221.88;5031452;28;19991;-78
2021/07/16 11:03:47;;;;;;;;;;;;;;;-142.75;39.28;76176.63;5030966;28;20015;-77
2021/07/16 11:06:14;;;;;;;;;;;;;;;-142.75;40.28;76214.00;5031606;28;19924;-79
2021/07/16 11:08:40;;;;;;;;;;;;;;;-142.75;39.75;76149.06;5031085;28;19960;-77
2021/07/16 11:11:18;;;;;;;;;;;;;;;-142.75;40.60;75983.72;5030298;28;19917;-77
2021/07/16 11:13:46;;;;;;;;;;;;;;;-142.75;39.60;75936.50;5031514;28;19944;-78
2021/07/16 11:18:55;;;;;;;;;;;;;;;-142.75;37.89;76032.94;5031089;28;20011;-78
2021/07/16 11:21:39;;;;;;;;;;;;;;;-142.75;38.60;76001.44;5022307;28;20132;-79
2021/07/16 11:24:24;;;;;;;;;;;;;;;-142.75;38.55;76005.38;5033280;28;19924;-79
2021/07/16 11:26:53;;;;;;;;;;;;;;;-142.75;38.79;76068.38;5013521;28;19917;-78
2021/07/16 11:29:20;;;;;;;;;;;;;;;-142.75;40.42;76225.81;5012825;28;19917;-78
2021/07/16 11:31:45;;;;;;;;;;;;;;;-142.75;41.63;76221.88;5030773;28;19917;-77
2021/07/16 11:34:14;;;;;;;;;;;;;;;-142.75;39.36;76082.13;5031697;28;19974;-78
2021/07/16 11:36:49;;;;;;;;;;;;;;;-142.75;39.23;76066.41;5031041;28;19933;-78
2021/07/16 11:39:33;;;;;;;;;;;;;;;-142.75;39.31;76068.38;5028672;28;19925;-77
2021/07/16 11:41:58;;;;;;;;;;;;;;;-142.75;39.63;76229.75;5029305;28;19921;-76
2021/07/16 11:44:28;;;;;;;;;;;;;;;-142.75;41.42;76326.22;5012424;28;20004;-78
2021/07/16 11:46:55;;;;;;;;;;;;;;;-142.75;43.16;76235.66;5031510;28;20016;-78
2021/07/16 11:49:25;;;;;;;;;;;;;;;-142.75;39.90;76143.16;5013274;28;19925;-79
2021/07/16 11:51:58;;;;;;;;;;;;;;;-142.75;40.31;76064.44;5013676;28;19921;-79
2021/07/16 11:54:24;;;;;;;;;;;;;;;-142.75;39.33;76174.66;5030379;28;20582;-77
2021/07/16 11:56:53;;;;;;;;;;;;;;;-142.75;41.17;76269.13;5028481;28;19917;-78
2021/07/16 11:59:22;;;;;;;;;;;;;;;-142.75;40.76;76200.25;5022538;28;20018;-76
2021/07/16 12:02:07;;;;;;;;;;;;;;;-142.75;41.03;76328.19;5028058;28;20398;-79
2021/07/16 12:04:33;;;;;;;;;;;;;;;-142.75;42.45;76336.06;5011258;28;19918;-78
2021/07/16 12:06:58;;;;;;;;;;;;;;;-142.75;42.16;76298.66;5013548;28;19924;-77
2021/07/16 12:09:34;;;;;;;;;;;;;;;-142.75;41.66;76288.81;5012800;28;19923;-78
2021/07/16 12:12:00;;;;;;;;;;;;;;;-142.75;42.99;76308.50;5017024;28;21679;-77
2021/07/16 12:14:25;;;;;;;;;;;;;;;-142.75;42.54;76375.41;5029478;28;19917;-75
2021/07/16 12:16:50;;;;;;;;;;;;;;;-142.75;43.97;76430.53;5016469;28;19921;-75
2021/07/16 12:19:16;;;;;;;;;;;;;;;-142.75;44.31;76440.38;5034060;28;19923;-78
2021/07/16 12:21:42;;;;;;;;;;;;;;;-142.75;45.11;76448.25;5016019;28;20016;-78
2021/07/16 12:24:07;;;;;;;;;;;;;;;-142.75;44.45;76442.34;5034879;28;19975;-79
2021/07/16 12:26:32;;;;;;;;;;;;;;;-142.75;44.67;76395.09;5032486;28;19960;-78